WetterOnline ( http://www.wetteronline.de )

Wetter aktuell Helgoland

Aktuelles Wetter: Helgoland/Düne (8m)

6-stündlich | Neueste Meldungen
Ortszeit Temperatur Wetter
Mi, 15.08. 2:00 18.2° C bedeckt
Di, 14.08. 20:00 18.5° C bedeckt
Di, 14.08. 14:00 20.1° C wolkenlos
Di, 14.08. 8:00 18.2° C bewölkt
Di, 14.08. 2:00 18.0° C bewölkt
Mo, 13.08. 20:00 17.7° C bedeckt
Mo, 13.08. 14:00 19.2° C bedeckt
Mo, 13.08. 8:00 19.3° C bedeckt
Ortszeit Temperatur Wetter
Mi, 15.08. 6:30 18.1° C bewölkt
Mi, 15.08. 6:20 18.1° C bewölkt
Mi, 15.08. 6:10 18.0° C wolkig
Mi, 15.08. 6:00 17.9° C fast wolkenlos
Mi, 15.08. 5:50 17.9° C fast wolkenlos
Mi, 15.08. 5:40 17.9° C wolkenlos
Mi, 15.08. 5:30 17.9° C wolkenlos
Mi, 15.08. 5:00 18.0° C leicht bewölkt
Mi, 15.08. 4:30 18.1° C bewölkt
Mi, 15.08. 4:00 18.1° C wolkig
Mi, 15.08. 3:30 18.2° C bedeckt
Ortszeit Relative Feuchte Sichtweite
Mi, 15.08. 2:00 82% 35 km
Di, 14.08. 20:00 81% 35 km
Di, 14.08. 14:00 82% >70 km
Di, 14.08. 8:00 88% 40 km
Di, 14.08. 2:00 89% 26 km
Mo, 13.08. 20:00 85% 20 km
Mo, 13.08. 14:00 77% 45 km
Mo, 13.08. 8:00 83% 29 km
Ortszeit Relative Feuchte Sichtweite
Mi, 15.08. 6:30 86% 40 km
Mi, 15.08. 6:20 86% -
Mi, 15.08. 6:10 85% -
Mi, 15.08. 6:00 85% 40 km
Mi, 15.08. 5:50 85% -
Mi, 15.08. 5:40 86% -
Mi, 15.08. 5:30 86% 30 km
Mi, 15.08. 5:00 85% 40 km
Mi, 15.08. 4:30 85% 35 km
Mi, 15.08. 4:00 85% 40 km
Mi, 15.08. 3:30 85% 45 km
Ortszeit Niederschlagsmenge Niederschlagsart
Mi, 15.08. 2:00 0.0 l/m2 in 6 Std. -
Di, 14.08. 20:00 0.1 l/m2 in 12 Std. Regen
Di, 14.08. 14:00 0.0 l/m2 in 6 Std. -
Di, 14.08. 8:00 1 l/m2 in 12 Std. -
Di, 14.08. 2:00 1 l/m2 in 6 Std. Regen
Mo, 13.08. 20:00 11 l/m2 in 12 Std. Regenschauer
Mo, 13.08. 14:00 0.1 l/m2 in 6 Std. Regen
Mo, 13.08. 8:00 0.1 l/m2 in 12 Std. Regen
Ortszeit Niederschlagsmenge Niederschlagsart
Mi, 15.08. 6:30 0.0 l/m2 in 1 Std. -
Mi, 15.08. 6:20 keine Meldung -
Mi, 15.08. 6:10 keine Meldung -
Mi, 15.08. 6:00 0.0 l/m2 in 1 Std. -
Mi, 15.08. 5:50 keine Meldung -
Mi, 15.08. 5:40 keine Meldung -
Mi, 15.08. 5:30 0.0 l/m2 in 1 Std. -
Mi, 15.08. 5:00 0.0 l/m2 in 1 Std. -
Mi, 15.08. 4:30 0.0 l/m2 in 1 Std. -
Mi, 15.08. 4:00 0.0 l/m2 in 1 Std. -
Mi, 15.08. 3:30 0.0 l/m2 in 1 Std. -
Ortszeit Stärke Spitze Richtung
km/h Bft. km/h Grad Sektor
Mi, 15.08. 2:00 18 3 43 270° W
Di, 14.08. 20:00 31 5 52 300° NW
Di, 14.08. 14:00 22 4 30 280° W
Di, 14.08. 8:00 13 3 30 290° W
Di, 14.08. 2:00 22 4 29 270° W
Mo, 13.08. 20:00 18 3 40 110° O
Mo, 13.08. 14:00 14 3 32 150° SO
Mo, 13.08. 8:00 25 4 29 120° SO
Ortszeit Stärke Spitze Richtung
km/h Bft. km/h Grad Sektor
Mi, 15.08. 6:30 18 3 25 260° W
Mi, 15.08. 6:20 18 3 - 260° W
Mi, 15.08. 6:10 18 3 - 260° W
Mi, 15.08. 6:00 18 3 29 270° W
Mi, 15.08. 5:50 18 3 - 270° W
Mi, 15.08. 5:40 18 3 - 270° W
Mi, 15.08. 5:30 19 3 28 270° W
Mi, 15.08. 5:00 22 4 32 270° W
Mi, 15.08. 4:30 26 4 30 260° W
Mi, 15.08. 4:00 20 4 24 260° W
Mi, 15.08. 3:30 20 4 24 260° W
Ortszeit Untergrenze Bedeckung Gattung
total tief tief mittel hoch
Mi, 15.08. 2:00 1800 m 8/8 8/8 - - -
Di, 14.08. 20:00 510 m 8/8 8/8 - - -
Di, 14.08. 14:00 - 0/8 0/8 - - -
Di, 14.08. 8:00 720 m 7/8 7/8 - - -
Di, 14.08. 2:00 1500 m 8/8 7/8 - - -
Mo, 13.08. 20:00 1110 m 8/8 8/8 - - -
Mo, 13.08. 14:00 1800 m 8/8 8/8 - - -
Mo, 13.08. 8:00 3000 m 8/8 8/8 - - -
Ortszeit Bedeckungsgrad in Achtel und Wolkenuntergrenze
Mi, 15.08. 6:30 5(1800m) 8(8100m)
Mi, 15.08. 6:20 5(1800m) 8(8100m)
Mi, 15.08. 6:10 5(1500m) 6(7800m) 6(8400m)
Mi, 15.08. 6:00 1(1500m)
Mi, 15.08. 5:50 1(1500m)
Mi, 15.08. 5:40 keine Wolken
Mi, 15.08. 5:30 keine Wolken
Mi, 15.08. 5:00 1(480m) 3(1500m)
Mi, 15.08. 4:30 2(450m) 3(780m) 7(1500m)
Mi, 15.08. 4:00 1(510m) 3(840m) 6(3600m)
Mi, 15.08. 3:30 8(3300m) 8(3900m)
Ortszeit Luftdruck NN (hPa) Tendenz (hPa in 3 Std.)
Mi, 15.08. 2:00 1015 + 0,4
Di, 14.08. 20:00 1013 + 1,8
Di, 14.08. 14:00 1010 + 1,7
Di, 14.08. 8:00 1006 + 0,9
Di, 14.08. 2:00 1005 + 0,6
Mo, 13.08. 20:00 1004 - 0,1
Mo, 13.08. 14:00 1006 - 0,5
Mo, 13.08. 8:00 1006 - 1,1
Ortszeit Luftdruck NN (hPa) Tendenz (hPa in 3 Std.)
Mi, 15.08. 6:30 1015 + 0,1
Mi, 15.08. 6:20 1015 keine Meldung
Mi, 15.08. 6:10 1015 keine Meldung
Mi, 15.08. 6:00 1015 + 0,1
Mi, 15.08. 5:50 1015 keine Meldung
Mi, 15.08. 5:40 1015 keine Meldung
Mi, 15.08. 5:30 1015 + 0,1
Mi, 15.08. 5:00 1015 0,0
Mi, 15.08. 4:30 1015 + 0,1
Mi, 15.08. 4:00 1015 + 0,1
Mi, 15.08. 3:30 1015 - 0,1
Ortszeit Schneehöhe (cm)
Mi, 15.08. 2:00 -
Di, 14.08. 20:00 -
Di, 14.08. 14:00 -
Di, 14.08. 8:00 -
Di, 14.08. 2:00 -
Mo, 13.08. 20:00 -
Mo, 13.08. 14:00 -
Mo, 13.08. 8:00 -
Ortszeit Schneehöhe (cm)
Mi, 15.08. 6:30 -
Mi, 15.08. 6:20 -
Mi, 15.08. 6:10 -
Mi, 15.08. 6:00 -
Mi, 15.08. 5:50 -
Mi, 15.08. 5:40 -
Mi, 15.08. 5:30 -
Mi, 15.08. 5:00 -
Mi, 15.08. 4:30 -
Mi, 15.08. 4:00 -
Mi, 15.08. 3:30 -
Link zu dieser Seite / Seite empfehlen

Das Wetter in ...